Time;durP1;ratioP1;P1;durP2;ratioP2;P2;SDS_P1;SDS_P2;PMS_P1;PMS_P2;Temp;Humidity;BMP_temperature;BMP_pressure;BME280_temperature;BME280_humidity;BME280_pressure;Samples;Min_cycle;Max_cycle;Signal;HPM_P1;HPM_P2
2021/04/03 00:00:13;;;;;;;16.93;10.27;;;;;;;0.81;74.32;98952.85;1792368;79;21214;-55
2021/04/03 00:02:40;;;;;;;18.03;10.70;;;;;;;0.79;74.26;98953.33;1776784;79;21230;-55
2021/04/03 00:05:09;;;;;;;22.30;10.50;;;;;;;0.75;74.35;98953.42;1750956;80;22594;-55
2021/04/03 00:07:37;;;;;;;14.63;8.80;;;;;;;0.74;74.28;98956.97;1750862;81;21211;-56
2021/04/03 00:10:10;;;;;;;14.77;8.10;;;;;;;0.73;74.31;98951.70;1750637;80;21749;-57
2021/04/03 00:12:38;;;;;;;15.13;10.20;;;;;;;0.72;74.37;98957.45;1749943;80;21207;-55
2021/04/03 00:15:06;;;;;;;20.57;11.10;;;;;;;0.71;74.29;98950.40;1779853;79;21187;-55
2021/04/03 00:17:34;;;;;;;18.03;10.20;;;;;;;0.70;74.24;98955.73;1782217;79;21520;-57
2021/04/03 00:20:01;;;;;;;18.73;11.13;;;;;;;0.70;74.34;98951.30;1782214;79;21214;-57
2021/04/03 00:22:29;;;;;;;18.20;11.77;;;;;;;0.70;74.33;98954.40;1784417;79;22027;-56
2021/04/03 00:24:56;;;;;;;18.47;9.90;;;;;;;0.70;74.28;98957.92;1783181;79;21669;-57
2021/04/03 00:27:24;;;;;;;16.13;10.43;;;;;;;0.67;74.25;98951.84;1782394;79;21220;-55
2021/04/03 00:29:51;;;;;;;16.97;10.43;;;;;;;0.66;74.33;98950.09;1777106;79;21218;-56
2021/04/03 00:32:19;;;;;;;17.23;9.57;;;;;;;0.65;74.29;98947.02;1786952;79;21179;-55
2021/04/03 00:34:46;;;;;;;17.63;9.93;;;;;;;0.65;74.33;98947.89;1748885;80;21353;-55
2021/04/03 00:37:14;;;;;;;17.40;9.97;;;;;;;0.66;74.37;98944.80;1749961;80;21780;-55
2021/04/03 00:39:42;;;;;;;16.20;9.17;;;;;;;0.67;74.38;98942.56;1784551;79;21197;-55
2021/04/03 00:42:16;;;;;;;14.30;8.37;;;;;;;0.66;74.39;98940.38;1786851;79;21524;-57
2021/04/03 00:44:47;;;;;;;19.90;9.70;;;;;;;0.65;74.37;98939.95;1777327;79;21194;-54
2021/04/03 00:47:17;;;;;;;14.50;8.17;;;;;;;0.65;74.38;98947.89;1782484;79;21762;-55
2021/04/03 00:49:45;;;;;;;11.37;7.83;;;;;;;0.64;74.31;98949.24;1785945;79;22245;-55
2021/04/03 00:52:13;;;;;;;12.23;7.73;;;;;;;0.64;74.30;98953.22;1791039;79;21206;-55
2021/04/03 00:54:42;;;;;;;15.90;8.13;;;;;;;0.59;74.15;98952.00;1780146;79;21205;-56
2021/04/03 00:57:10;;;;;;;17.77;7.63;;;;;;;0.55;74.23;98945.46;1787157;79;21167;-56
2021/04/03 00:59:38;;;;;;;15.83;6.87;;;;;;;0.54;74.21;98945.04;1791227;79;22934;-57
2021/04/03 01:02:05;;;;;;;16.43;9.30;;;;;;;0.51;74.37;98949.94;1737319;79;21207;-55
2021/04/03 01:04:35;;;;;;;14.10;6.73;;;;;;;0.51;74.46;98955.72;1787242;79;21638;-55
2021/04/03 01:07:05;;;;;;;12.60;7.50;;;;;;;0.47;74.54;98957.98;1791404;79;21808;-54
2021/04/03 01:09:39;;;;;;;16.30;9.27;;;;;;;0.45;74.65;98950.52;1783323;79;21167;-55
2021/04/03 01:12:34;;;;;;;14.73;8.07;;;;;;;0.47;74.74;98959.31;1753774;80;21126;-57
2021/04/03 01:15:24;;;;;;;15.53;8.73;;;;;;;0.45;74.73;98961.98;1727852;80;21735;-54
2021/04/03 01:18:21;;;;;;;14.43;7.37;;;;;;;0.45;74.84;98954.49;1782094;79;21163;-56
2021/04/03 01:21:16;;;;;;;13.23;6.27;;;;;;;0.47;74.85;98961.52;1758895;79;21671;-54
2021/04/03 01:23:53;;;;;;;11.77;6.50;;;;;;;0.44;74.82;98962.89;1784671;79;21182;-57
2021/04/03 01:26:56;;;;;;;9.10;5.13;;;;;;;0.45;75.04;98959.34;1754126;80;21226;-57
2021/04/03 01:29:47;;;;;;;8.87;5.10;;;;;;;0.47;75.06;98957.98;1758867;80;21614;-57
2021/04/03 01:32:17;;;;;;;8.30;3.80;;;;;;;0.48;75.01;98959.73;1756895;80;21554;-57
2021/04/03 01:34:44;;;;;;;9.03;4.87;;;;;;;0.47;75.04;98963.28;1753110;79;21143;-57
2021/04/03 01:37:57;;;;;;;7.80;4.47;;;;;;;0.51;75.31;98961.02;1864771;75;26794;-57
2021/04/03 01:40:25;;;;;;;6.87;4.07;;;;;;;0.48;75.24;98957.09;1843159;77;21218;-57
2021/04/03 01:43:02;;;;;;;7.63;4.03;;;;;;;0.51;75.22;98957.87;1843892;77;21194;-57
2021/04/03 01:45:30;;;;;;;10.23;5.20;;;;;;;0.52;75.15;98958.75;1845170;77;21005;-57
2021/04/03 01:48:00;;;;;;;7.10;4.47;;;;;;;0.49;75.38;98958.39;1846604;77;21472;-57
2021/04/03 01:50:27;;;;;;;7.13;4.47;;;;;;;0.50;75.31;98959.27;1783848;78;21105;-57
2021/04/03 01:52:55;;;;;;;7.93;4.10;;;;;;;0.46;75.05;98961.53;1809097;78;20984;-57
2021/04/03 01:55:24;;;;;;;7.53;4.17;;;;;;;0.44;75.03;98953.62;1769135;80;21016;-57
2021/04/03 01:57:52;;;;;;;6.73;4.17;;;;;;;0.44;75.09;98953.62;1781666;79;21455;-57
2021/04/03 02:00:24;;;;;;;8.80;4.43;;;;;;;0.44;75.04;98956.72;1779799;78;21159;-57
2021/04/03 02:02:54;;;;;;;8.40;5.37;;;;;;;0.42;75.09;98952.80;1769518;80;21214;-57
2021/04/03 02:05:23;;;;;;;10.00;4.70;;;;;;;0.42;75.21;98952.80;1780588;79;21539;-57
2021/04/03 02:07:52;;;;;;;8.80;4.67;;;;;;;0.42;75.07;98953.25;1808692;78;21546;-57
2021/04/03 02:10:26;;;;;;;8.77;4.20;;;;;;;0.39;74.92;98946.23;1809593;78;21230;-57
2021/04/03 02:12:59;;;;;;;12.53;3.27;;;;;;;0.39;74.91;98944.91;1810377;78;21367;-57
2021/04/03 02:15:28;;;;;;;6.13;3.37;;;;;;;0.37;74.84;98942.29;1754334;78;21175;-56
2021/04/03 02:17:57;;;;;;;9.20;3.27;;;;;;;0.38;74.79;98940.52;1776796;78;21215;-56
2021/04/03 02:20:26;;;;;;;5.00;3.13;;;;;;;0.38;74.60;98936.55;1773574;80;21387;-56
2021/04/03 02:22:54;;;;;;;6.03;3.53;;;;;;;0.36;74.60;98939.66;1806428;78;21178;-56
2021/04/03 02:25:22;;;;;;;6.93;3.13;;;;;;;0.34;74.65;98937.05;1807109;78;21171;-56
2021/04/03 02:27:51;;;;;;;6.47;3.43;;;;;;;0.32;74.71;98934.91;1769442;79;21211;-56
2021/04/03 02:30:23;;;;;;;6.17;3.47;;;;;;;0.33;74.71;98935.78;1766589;80;21211;-57
2021/04/03 02:32:54;;;;;;;5.67;2.60;;;;;;;0.34;74.50;98933.08;1782123;79;21698;-55
2021/04/03 02:35:25;;;;;;;5.60;3.23;;;;;;;0.33;74.37;98939.30;1813523;78;21181;-56
2021/04/03 02:37:58;;;;;;;4.37;2.47;;;;;;;0.31;74.28;98933.16;1779844;78;21135;-56
2021/04/03 02:40:29;;;;;;;6.17;2.20;;;;;;;0.28;74.17;98935.85;1808532;78;21218;-57
2021/04/03 02:43:18;;;;;;;8.17;2.23;;;;;;;0.26;74.06;98937.65;1786101;78;21187;-56
2021/04/03 02:45:51;;;;;;;4.83;1.77;;;;;;;0.21;73.93;98936.01;1805886;78;23107;-57
2021/04/03 02:48:20;;;;;;;;;;;;;;;0.17;73.96;98939.16;1786868;78;21729;-56
2021/04/03 02:50:52;;;;;;;3.67;1.90;;;;;;;0.14;74.05;98939.68;1809704;78;20290;-57
2021/04/03 02:53:27;;;;;;;3.30;1.67;;;;;;;0.14;73.92;98946.30;1755585;78;21009;-57
2021/04/03 02:55:54;;;;;;;3.47;1.60;;;;;;;0.12;73.83;98945.00;1793673;78;21466;-57
2021/04/03 02:58:24;;;;;;;2.40;1.73;;;;;;;0.11;73.87;98947.22;1805293;78;21378;-57
2021/04/03 03:00:52;;;;;;;4.40;1.70;;;;;;;0.14;73.75;98947.63;1809220;78;21210;-57
2021/04/03 03:03:22;;;;;;;6.07;1.67;;;;;;;0.13;73.73;98942.78;1810010;78;21172;-57
2021/04/03 03:05:50;;;;;;;3.67;1.70;;;;;;;0.12;73.70;98944.13;1779706;79;21708;-57
2021/04/03 03:08:19;;;;;;;4.53;1.90;;;;;;;0.05;73.66;98952.64;1788364;78;21178;-56
2021/04/03 03:10:48;;;;;;;2.87;1.30;;;;;;;-0.04;73.75;98960.30;1786686;78;21281;-56
2021/04/03 03:13:18;;;;;;;6.37;2.20;;;;;;;-0.10;73.64;98956.45;1779535;79;21367;-56
2021/04/03 03:15:45;;;;;;;4.60;1.73;;;;;;;-0.18;73.82;98954.39;1810664;78;21198;-56
2021/04/03 03:18:14;;;;;;;4.90;1.73;;;;;;;-0.21;73.85;98951.79;1786876;78;21186;-56
2021/04/03 03:20:44;;;;;;;7.93;1.57;;;;;;;-0.22;73.98;98946.52;1780426;79;21214;-55
2021/04/03 03:23:12;;;;;;;5.53;2.07;;;;;;;-0.21;74.07;98953.11;1780714;79;22026;-55
2021/04/03 03:25:39;;;;;;;4.27;1.97;;;;;;;-0.21;73.99;98947.83;1752744;79;21123;-56
2021/04/03 03:28:07;;;;;;;5.63;2.37;;;;;;;-0.19;74.08;98950.45;1749420;79;21119;-56
2021/04/03 03:30:35;;;;;;;3.73;1.90;;;;;;;-0.16;74.12;98954.34;1780983;79;21600;-56
2021/04/03 03:33:04;;;;;;;6.80;2.57;;;;;;;-0.16;74.19;98947.72;1749919;79;21623;-56
2021/04/03 03:35:32;;;;;;;9.73;4.23;;;;;;;-0.13;74.39;98942.39;1782220;79;22140;-56
2021/04/03 03:38:00;;;;;;;8.53;3.50;;;;;;;-0.11;74.46;98942.80;1738418;80;21186;-57
2021/04/03 03:40:28;;;;;;;10.97;5.57;;;;;;;-0.07;74.61;98935.20;1754936;80;21179;-56
2021/04/03 03:42:57;;;;;;;9.13;4.63;;;;;;;-0.02;74.66;98939.98;1714971;80;21234;-56
2021/04/03 03:45:26;;;;;;;8.50;4.30;;;;;;;0.05;74.72;98938.53;1757961;80;21087;-56
2021/04/03 03:47:56;;;;;;;8.00;3.70;;;;;;;0.06;74.76;98931.89;1756624;80;21741;-57
2021/04/03 03:50:25;;;;;;;11.40;5.07;;;;;;;0.10;74.64;98934.02;1755212;80;21616;-57
2021/04/03 03:52:52;;;;;;;15.97;7.30;;;;;;;0.11;74.67;98937.08;1753831;80;21195;-57
2021/04/03 03:55:20;;;;;;;18.27;9.57;;;;;;;0.14;74.69;98935.72;1735478;80;21955;-56
2021/04/03 03:57:48;;;;;;;16.33;9.70;;;;;;;0.18;74.78;98934.28;1778992;79;21584;-57
2021/04/03 04:00:17;;;;;;;13.97;6.93;;;;;;;0.23;74.67;98938.18;1786121;79;22210;-57
2021/04/03 04:02:47;;;;;;;18.03;8.43;;;;;;;0.25;74.75;98940.35;1783107;79;21176;-56
2021/04/03 04:05:17;;;;;;;20.90;8.73;;;;;;;0.29;74.86;98942.02;1781319;78;21664;-56
2021/04/03 04:07:46;;;;;;;16.53;9.53;;;;;;;0.33;74.89;98942.40;1753941;80;21230;-56
2021/04/03 04:10:15;;;;;;;13.17;6.70;;;;;;;0.34;74.91;98946.31;1734452;81;21195;-56
2021/04/03 04:12:44;;;;;;;12.33;5.27;;;;;;;0.37;74.83;98946.70;1754660;80;22237;-56
2021/04/03 04:15:13;;;;;;;10.90;6.00;;;;;;;0.34;74.84;98954.25;1752381;80;21186;-56
2021/04/03 04:17:40;;;;;;;9.50;5.37;;;;;;;0.33;75.07;98947.23;1751493;80;21150;-56
2021/04/03 04:20:11;;;;;;;10.97;6.20;;;;;;;0.39;75.17;98954.17;1751591;80;21174;-56
2021/04/03 04:22:39;;;;;;;13.47;5.70;;;;;;;0.45;75.25;98950.07;1750438;80;21218;-56
2021/04/03 04:25:09;;;;;;;12.53;6.07;;;;;;;0.52;75.29;98951.69;1785238;79;21639;-57
2021/04/03 04:27:37;;;;;;;12.47;7.33;;;;;;;0.59;75.32;98949.36;1788055;79;21512;-56
2021/04/03 04:30:09;;;;;;;15.93;8.30;;;;;;;0.68;75.33;98950.45;1753569;79;21163;-56
2021/04/03 04:32:39;;;;;;;14.87;7.33;;;;;;;0.80;75.34;98951.11;1780523;80;21098;-56
2021/04/03 04:35:09;;;;;;;13.27;7.20;;;;;;;0.89;75.36;98953.56;1753440;79;21414;-56
2021/04/03 04:37:37;;;;;;;14.93;8.10;;;;;;;1.02;75.48;98953.23;1792263;78;21550;-56
2021/04/03 04:40:07;;;;;;;14.53;6.50;;;;;;;1.22;75.53;98950.13;1747925;78;21177;-56
2021/04/03 04:42:35;;;;;;;12.13;6.70;;;;;;;1.46;75.18;98947.34;1808121;78;21565;-57
2021/04/03 04:45:03;;;;;;;13.47;6.23;;;;;;;1.65;74.64;98943.33;1766026;80;21390;-56
2021/04/03 04:47:30;;;;;;;12.53;7.10;;;;;;;1.79;74.42;98946.49;1804061;78;21643;-57
2021/04/03 04:49:58;;;;;;;12.97;7.40;;;;;;;1.92;74.18;98947.06;1809873;78;21382;-57
2021/04/03 04:52:27;;;;;;;12.73;6.33;;;;;;;2.09;74.14;98959.89;1781710;78;21724;-56
2021/04/03 04:54:54;;;;;;;9.90;4.93;;;;;;;2.26;73.56;98955.87;1756148;78;21098;-57
2021/04/03 04:59:53;;;;;;;8.37;4.00;;;;;;;2.47;72.50;98951.72;1869067;75;27071;-57
2021/04/03 05:02:23;;;;;;;10.30;5.17;;;;;;;2.46;72.23;98950.47;1841587;77;21107;-56
2021/04/03 05:04:50;;;;;;;9.83;4.73;;;;;;;2.49;72.34;98956.54;1804634;78;21353;-57
2021/04/03 05:07:17;;;;;;;10.07;5.77;;;;;;;2.51;72.16;98953.39;1805923;78;20976;-57
2021/04/03 05:09:44;;;;;;;7.57;3.77;;;;;;;2.55;71.85;98955.52;1765603;80;21050;-57
2021/04/03 05:12:13;;;;;;;8.67;3.13;;;;;;;2.60;71.63;98959.77;1779018;79;21210;-57
2021/04/03 05:14:40;;;;;;;8.77;3.30;;;;;;;2.66;71.35;98953.40;1774654;79;21203;-57
2021/04/03 05:17:07;;;;;;;6.20;3.37;;;;;;;2.74;70.99;98958.03;1777197;79;21437;-57
2021/04/03 05:19:34;;;;;;;5.00;2.50;;;;;;;2.82;70.95;98952.03;1778330;79;21185;-57
2021/04/03 05:22:02;;;;;;;6.57;2.40;;;;;;;2.93;70.57;98946.41;1782665;78;21135;-59
2021/04/03 05:24:29;;;;;;;5.87;2.37;;;;;;;3.02;70.43;98943.46;1785190;78;21569;-59
2021/04/03 05:26:57;;;;;;;5.83;2.23;;;;;;;3.10;69.55;98942.77;1799172;78;21229;-59
2021/04/03 05:29:24;;;;;;;2.90;1.87;;;;;;;3.14;68.86;98935.13;1801479;78;21966;-60
2021/04/03 05:31:52;;;;;;;5.17;1.53;;;;;;;3.19;68.65;98936.29;1787438;78;21592;-60
2021/04/03 05:34:19;;;;;;;2.40;1.27;;;;;;;3.26;68.25;98939.16;1807782;78;21164;-59
2021/04/03 05:36:48;;;;;;;4.70;2.30;;;;;;;3.31;67.70;98940.78;1765134;80;21590;-58
2021/04/03 05:39:16;;;;;;;3.30;1.20;;;;;;;3.36;68.16;98942.82;1781489;79;21191;-59
2021/04/03 05:41:43;;;;;;;4.63;1.70;;;;;;;3.45;67.90;98944.31;1777238;78;21388;-61
2021/04/03 05:44:11;;;;;;;2.80;1.90;;;;;;;3.53;67.60;98946.72;1775706;79;21764;-58
2021/04/03 05:46:39;;;;;;;4.43;2.53;;;;;;;3.61;67.36;98942.89;1714197;80;21521;-58
2021/04/03 05:49:06;;;;;;;3.77;1.53;;;;;;;3.69;67.35;98950.16;1809100;77;21701;-60
2021/04/03 05:51:34;;;;;;;4.40;1.40;;;;;;;3.77;67.00;98956.09;1807336;77;21183;-58
2021/04/03 05:54:02;;;;;;;2.93;1.37;;;;;;;3.84;66.82;98958.08;1806719;77;23154;-60
2021/04/03 05:56:29;;;;;;;2.20;1.10;;;;;;;3.93;66.91;98958.23;1810378;77;21671;-60
2021/04/03 05:58:56;;;;;;;3.17;1.50;;;;;;;4.03;66.96;98951.67;1761260;79;21713;-60
2021/04/03 06:01:24;;;;;;;4.60;1.20;;;;;;;4.15;66.68;98956.13;1758141;79;21107;-59
2021/04/03 06:03:51;;;;;;;3.73;1.43;;;;;;;4.24;66.24;98956.27;1761102;80;21113;-61
2021/04/03 06:06:19;;;;;;;3.13;1.23;;;;;;;4.30;66.10;98952.05;1729737;80;22065;-58
2021/04/03 06:08:46;;;;;;;2.13;1.30;;;;;;;4.39;65.41;98953.05;1779380;78;21562;-60
2021/04/03 06:11:18;;;;;;;2.13;1.00;;;;;;;4.43;64.52;98944.00;1779947;79;21103;-58
2021/04/03 06:14:02;;;;;;;2.12;1.20;;;;;;;4.46;64.11;98951.02;1748814;80;21206;-60
2021/04/03 06:16:38;;;;;;;2.20;0.93;;;;;;;4.47;64.47;98956.77;1749926;80;21206;-57
2021/04/03 06:19:09;;;;;;;3.67;1.43;;;;;;;4.52;63.44;98961.45;1788795;78;21388;-60
2021/04/03 06:21:40;;;;;;;2.80;1.73;;;;;;;4.51;63.25;98960.58;1747060;80;21468;-60
2021/04/03 06:24:37;;;;;;;2.77;0.90;;;;;;;4.55;63.38;98968.02;1767420;80;21534;-61
2021/04/03 06:27:12;;;;;;;3.47;1.33;;;;;;;4.61;63.10;98966.45;1767647;80;21225;-57
2021/04/03 06:29:48;;;;;;;2.10;0.90;;;;;;;4.65;63.01;98963.22;1765754;79;21174;-58
2021/04/03 06:32:32;;;;;;;2.25;1.30;;;;;;;4.74;62.94;98966.89;1766326;79;21835;-60
2021/04/03 06:34:57;;;;;;;3.07;1.03;;;;;;;4.82;62.53;98971.00;1761600;79;21173;-58
2021/04/03 06:37:32;;;;;;;2.43;1.40;;;;;;;4.89;61.99;98976.97;1766340;80;21213;-58
2021/04/03 06:40:10;;;;;;;3.33;1.50;;;;;;;4.98;62.31;98982.42;1765921;79;21170;-58
2021/04/03 06:42:55;;;;;;;3.20;1.30;;;;;;;5.05;62.32;98982.59;1766332;79;21146;-58
2021/04/03 06:45:29;;;;;;;4.13;1.50;;;;;;;5.13;62.20;98984.03;1768116;80;21664;-58
2021/04/03 06:48:03;;;;;;;6.27;1.80;;;;;;;5.20;62.02;98990.00;1764648;79;21185;-60
2021/04/03 06:50:42;;;;;;;9.40;1.62;;;;;;;5.25;62.13;98988.91;1766475;80;21713;-56
2021/04/03 06:53:15;;;;;;;3.20;1.10;;;;;;;5.28;61.43;98996.78;1765082;79;21181;-56
2021/04/03 06:55:47;;;;;;;2.73;1.30;;;;;;;5.28;60.42;98990.57;1766617;79;21110;-58
2021/04/03 06:58:15;;;;;;;1.53;0.90;;;;;;;5.26;60.67;98996.45;1741229;79;22044;-57
2021/04/03 07:00:45;;;;;;;4.80;1.03;;;;;;;5.28;60.54;99002.11;1786131;78;21218;-55
2021/04/03 07:03:20;;;;;;;3.93;1.43;;;;;;;5.31;60.00;99006.02;1784180;78;21183;-57
2021/04/03 07:05:48;;;;;;;9.25;2.90;;;;;;;5.32;60.25;99008.22;1806279;77;21126;-56
2021/04/03 07:08:15;;;;;;;5.33;2.27;;;;;;;5.35;60.45;99010.78;1801218;77;21083;-56
2021/04/03 07:10:46;;;;;;;6.63;2.43;;;;;;;5.40;61.08;99010.13;1777988;79;22317;-56
2021/04/03 07:13:15;;;;;;;6.23;2.50;;;;;;;5.49;60.75;99011.56;1809912;77;20982;-55
2021/04/03 07:15:44;;;;;;;4.53;3.00;;;;;;;5.56;60.86;99011.25;1779932;79;21102;-56
2021/04/03 07:18:13;;;;;;;7.87;2.53;;;;;;;5.65;60.78;99023.37;1773011;78;21118;-56
2021/04/03 07:20:41;;;;;;;3.33;1.47;;;;;;;5.73;61.02;99017.72;1808142;77;21084;-56
2021/04/03 07:23:12;;;;;;;6.33;2.57;;;;;;;5.86;60.69;99025.66;1772829;79;21192;-56
2021/04/03 07:25:42;;;;;;;4.00;1.33;;;;;;;6.01;60.38;99027.72;1803986;77;21678;-55
2021/04/03 07:28:10;;;;;;;4.27;1.40;;;;;;;6.14;59.72;99026.73;1772146;80;21705;-55
2021/04/03 07:30:41;;;;;;;3.27;1.23;;;;;;;6.25;59.65;99032.50;1777223;79;21155;-55
2021/04/03 07:33:18;;;;;;;6.33;1.40;;;;;;;6.33;58.17;99030.38;1778668;79;21476;-58
2021/04/03 07:35:53;;;;;;;3.10;1.30;;;;;;;6.37;57.73;99031.53;1805261;77;21889;-55
2021/04/03 07:38:24;;;;;;;2.17;1.20;;;;;;;6.41;56.85;99028.25;1801730;77;21107;-54
2021/04/03 07:41:00;;;;;;;2.43;1.40;;;;;;;6.41;57.11;99029.58;1806277;77;21502;-59
2021/04/03 07:43:36;;;;;;;5.93;1.37;;;;;;;6.46;56.74;99026.27;1805263;77;21089;-57
2021/04/03 07:46:14;;;;;;;2.23;1.00;;;;;;;6.50;56.37;99033.66;1771456;79;21116;-56
2021/04/03 07:48:46;;;;;;;1.60;0.90;;;;;;;6.56;56.20;99031.59;1809497;77;22232;-59
2021/04/03 07:51:34;;;;;;;3.83;1.10;;;;;;;6.66;56.59;99034.27;1775479;78;21559;-57
2021/04/03 07:54:03;;;;;;;3.93;0.80;;;;;;;6.75;55.87;99032.53;1801122;78;21174;-58
2021/04/03 07:56:52;;;;;;;4.97;1.00;;;;;;;6.82;56.12;99038.47;1806655;77;22120;-56
2021/04/03 07:59:47;;;;;;;2.60;0.80;;;;;;;6.91;55.50;99040.73;1777616;78;21181;-57
2021/04/03 08:02:21;;;;;;;1.27;0.77;;;;;;;7.00;54.90;99055.05;1771451;79;21203;-61
2021/04/03 08:04:48;;;;;;;1.70;1.00;;;;;;;7.10;54.68;99051.48;1800476;77;21142;-59
2021/04/03 08:07:18;;;;;;;2.43;0.90;;;;;;;7.20;55.00;99059.51;1770968;79;21190;-58
2021/04/03 08:09:46;;;;;;;3.40;0.70;;;;;;;7.35;54.17;99061.94;1771879;79;21119;-56
2021/04/03 08:12:13;;;;;;;3.00;0.70;;;;;;;7.45;52.47;99057.91;1771194;79;21083;-56
2021/04/03 08:14:44;;;;;;;3.50;0.90;;;;;;;7.48;50.94;99055.97;1802795;77;21562;-56
2021/04/03 08:17:20;;;;;;;2.17;0.70;;;;;;;7.48;51.44;99047.94;1781954;78;21210;-59
2021/04/03 08:19:49;;;;;;;1.70;0.80;;;;;;;7.47;51.76;99045.33;1782950;78;21246;-58
2021/04/03 08:22:16;;;;;;;1.97;0.67;;;;;;;7.46;51.77;99035.55;1764922;79;21190;-57
2021/04/03 08:24:55;;;;;;;4.60;0.90;;;;;;;7.50;51.53;99033.11;1768852;79;21099;-58
2021/04/03 08:27:33;;;;;;;0.97;0.50;;;;;;;7.56;51.80;99036.39;1774393;79;21182;-55
2021/04/03 08:30:20;;;;;;;2.13;0.70;;;;;;;7.66;51.45;99039.94;1781564;78;21182;-58
2021/04/03 08:32:31;;;;;;;0.80;0.53;;;;;;;7.76;50.85;99039.91;1761470;79;21440;-58
2021/04/03 08:34:59;;;;;;;1.00;0.57;;;;;;;7.87;50.39;99034.44;1763241;79;21171;-59
2021/04/03 08:37:26;;;;;;;1.83;0.50;;;;;;;7.98;49.68;99032.58;1781296;78;21421;-59
2021/04/03 08:39:53;;;;;;;0.90;0.50;;;;;;;8.07;49.04;99028.11;1798791;77;21716;-58
2021/04/03 08:42:21;;;;;;;1.00;0.40;;;;;;;8.18;48.59;99036.94;1768511;79;21524;-59
2021/04/03 08:44:50;;;;;;;1.70;0.40;;;;;;;8.29;48.61;99028.77;1778780;79;21457;-59
2021/04/03 08:47:18;;;;;;;1.27;0.43;;;;;;;8.42;46.76;99014.78;1783980;78;21182;-58
2021/04/03 08:49:45;;;;;;;1.23;0.40;;;;;;;8.51;47.05;99004.89;1797915;77;21174;-58
2021/04/03 08:52:12;;;;;;;1.20;0.40;;;;;;;8.57;46.72;99011.30;1756538;78;21403;-57
2021/04/03 08:54:43;;;;;;;0.67;0.33;;;;;;;8.62;46.31;99015.94;1778338;79;21222;-57
2021/04/03 08:57:24;;;;;;;0.87;0.40;;;;;;;8.62;45.04;99012.79;1784305;79;21135;-59
2021/04/03 08:59:53;;;;;;;0.60;0.40;;;;;;;8.65;45.94;99015.80;1782584;78;21111;-56
2021/04/03 09:02:22;;;;;;;1.10;0.40;;;;;;;8.78;45.69;99021.38;1784305;78;21302;-57
2021/04/03 09:04:49;;;;;;;0.67;0.30;;;;;;;8.88;44.67;99016.79;1792012;77;21632;-59
2021/04/03 09:07:33;;;;;;;0.73;0.30;;;;;;;8.96;43.76;99011.88;1774007;78;21206;-58
2021/04/03 09:10:10;;;;;;;0.53;0.30;;;;;;;8.97;43.64;99014.09;1789981;77;21155;-58
2021/04/03 09:12:39;;;;;;;0.50;0.40;;;;;;;9.02;43.26;99012.89;1798573;77;21000;-59
2021/04/03 09:15:07;;;;;;;0.77;0.33;;;;;;;9.12;43.62;99011.92;1769012;79;21116;-57
2021/04/03 09:17:53;;;;;;;0.50;0.30;;;;;;;9.19;43.25;99006.61;1773294;78;21417;-57
2021/04/03 09:20:28;;;;;;;0.70;0.33;;;;;;;9.23;42.56;99010.00;1770067;79;21194;-57
2021/04/03 09:23:04;;;;;;;0.50;0.30;;;;;;;9.23;41.23;99020.74;1772658;79;21526;-56
2021/04/03 09:25:32;;;;;;;1.10;0.30;;;;;;;9.15;40.44;99021.16;1777660;78;21198;-57
2021/04/03 09:28:10;;;;;;;0.70;0.40;;;;;;;9.03;40.52;99012.41;1770419;78;21115;-59
2021/04/03 09:30:46;;;;;;;0.50;0.20;;;;;;;8.99;41.25;99015.75;1794071;77;21410;-56
2021/04/03 09:33:22;;;;;;;0.40;0.20;;;;;;;9.01;41.48;99011.18;1777873;78;21142;-58
2021/04/03 09:35:51;;;;;;;0.73;0.20;;;;;;;9.08;39.92;99018.42;1773970;79;21151;-57
2021/04/03 09:38:32;;;;;;;0.37;0.20;;;;;;;9.10;38.96;99009.81;1772953;78;21115;-55
2021/04/03 09:40:59;;;;;;;0.33;0.20;;;;;;;9.12;38.97;99017.29;1773435;78;21546;-57
2021/04/03 09:43:42;;;;;;;0.50;0.20;;;;;;;9.19;39.28;99017.34;1772283;78;21512;-57
2021/04/03 09:46:10;;;;;;;0.37;0.10;;;;;;;9.24;36.98;99013.08;1792948;77;21123;-57
2021/04/03 09:48:37;;;;;;;0.30;0.10;;;;;;;9.26;36.38;99014.75;1775394;79;21995;-59
2021/04/03 09:51:05;;;;;;;1.35;0.20;;;;;;;9.32;37.15;99013.53;1771224;78;21898;-55
2021/04/03 09:53:34;;;;;;;0.25;0.10;;;;;;;9.37;35.05;99016.82;1791964;77;21657;-57
2021/04/03 09:56:04;;;;;;;0.30;0.10;;;;;;;9.33;36.33;99003.19;1791901;77;21208;-60
2021/04/03 09:58:31;;;;;;;2.40;0.30;;;;;;;9.33;35.86;98995.13;1773754;78;21583;-59
2021/04/03 10:00:59;;;;;;;0.37;0.20;;;;;;;9.34;36.45;99007.13;1794486;77;21609;-56
2021/04/03 10:03:26;;;;;;;0.68;0.30;;;;;;;9.41;37.33;99006.31;1777295;78;21186;-61
2021/04/03 10:05:54;;;;;;;0.40;0.20;;;;;;;9.51;37.95;99010.23;1811926;77;21223;-59
2021/04/03 10:08:21;;;;;;;0.40;0.20;;;;;;;9.64;37.70;99009.05;1817466;77;21348;-54
2021/04/03 10:10:50;;;;;;;0.40;0.20;;;;;;;9.74;37.25;99009.80;1811999;78;21206;-58
2021/04/03 10:13:17;;;;;;;1.05;0.30;;;;;;;9.75;36.73;99022.29;1779894;78;21169;-57
2021/04/03 10:15:46;;;;;;;0.50;0.20;;;;;;;9.78;37.84;99025.29;1765672;78;21195;-59
2021/04/03 10:18:16;;;;;;;0.40;0.20;;;;;;;9.91;37.57;99028.13;1785801;78;21876;-56
2021/04/03 10:20:44;;;;;;;0.42;0.20;;;;;;;9.97;36.27;99019.23;1786961;78;21210;-57
2021/04/03 10:23:11;;;;;;;0.30;0.20;;;;;;;10.03;36.74;99012.18;1790694;78;21173;-58
2021/04/03 10:25:38;;;;;;;0.55;0.30;;;;;;;10.14;36.55;99001.65;1787144;78;21250;-58
2021/04/03 10:28:07;;;;;;;0.50;0.20;;;;;;;10.17;35.51;99004.64;1811504;77;21575;-57
2021/04/03 10:30:36;;;;;;;0.13;0.10;;;;;;;10.08;35.07;99002.48;1785573;79;21107;-55
2021/04/03 10:33:04;;;;;;;0.62;0.20;;;;;;;9.98;35.13;99008.00;1786643;78;21571;-58
2021/04/03 10:35:31;;;;;;;1.05;0.20;;;;;;;9.94;35.02;99014.53;1786334;79;21094;-56
2021/04/03 10:37:58;;;;;;;0.20;0.20;;;;;;;9.92;35.04;99006.55;1814727;77;21454;-55
2021/04/03 10:40:26;;;;;;;2.55;0.20;;;;;;;9.93;35.29;99003.37;1807077;77;21656;-57
2021/04/03 10:42:53;;;;;;;0.70;0.20;;;;;;;9.96;35.29;98998.67;1808887;77;21109;-59
2021/04/03 10:45:21;;;;;;;0.40;0.20;;;;;;;9.95;36.11;99002.34;1785137;78;21683;-57
2021/04/03 10:47:48;;;;;;;0.37;0.20;;;;;;;9.97;35.92;99006.27;1809163;78;21154;-56
2021/04/03 10:50:16;;;;;;;0.40;0.20;;;;;;;9.99;34.78;99001.20;1814408;77;21119;-57
2021/04/03 10:52:45;;;;;;;0.90;0.30;;;;;;;9.95;35.87;98995.63;1808199;78;21112;-57
2021/04/03 10:55:13;;;;;;;0.40;0.20;;;;;;;9.97;36.07;98995.03;1785877;78;21953;-56
2021/04/03 10:57:41;;;;;;;0.42;0.20;;;;;;;10.02;34.81;98997.48;1807713;78;21195;-56
2021/04/03 11:00:10;;;;;;;0.53;0.20;;;;;;;9.94;35.50;98994.36;1813804;77;21553;-56
2021/04/03 11:02:37;;;;;;;0.78;0.20;;;;;;;9.90;35.07;98994.14;1811055;78;21441;-56
2021/04/03 11:05:05;;;;;;;1.30;0.20;;;;;;;9.86;35.02;98988.95;1816720;78;21174;-58
2021/04/03 11:07:33;;;;;;;0.70;0.20;;;;;;;9.92;34.36;98990.89;1791237;79;21138;-58
2021/04/03 11:10:01;;;;;;;0.20;0.13;;;;;;;9.94;33.74;98993.02;1788507;78;22133;-56
2021/04/03 11:12:28;;;;;;;0.47;0.20;;;;;;;9.92;33.62;98995.80;1772729;78;21254;-57
2021/04/03 11:14:58;;;;;;;0.30;0.20;;;;;;;9.91;33.27;98990.50;1780968;78;21238;-58
2021/04/03 11:17:25;;;;;;;0.30;0.20;;;;;;;9.87;32.97;98996.04;1775316;78;21654;-57
2021/04/03 11:19:55;;;;;;;0.55;0.20;;;;;;;9.84;33.68;98989.99;1815325;77;21174;-56
2021/04/03 11:22:24;;;;;;;0.20;0.10;;;;;;;9.84;33.53;98988.17;1816311;77;22759;-57
2021/04/03 11:24:53;;;;;;;0.20;0.20;;;;;;;9.87;32.89;98997.86;1777374;78;21134;-57
2021/04/03 11:27:20;;;;;;;0.20;0.10;;;;;;;9.82;33.06;98993.23;1816543;77;21776;-58
2021/04/03 11:29:48;;;;;;;2.05;0.20;;;;;;;9.83;33.06;99000.34;1815116;77;21579;-57
2021/04/03 11:32:15;;;;;;;0.33;0.10;;;;;;;9.84;32.16;98987.30;1818301;77;21135;-55
2021/04/03 11:34:43;;;;;;;0.35;0.20;;;;;;;9.87;32.59;98995.17;1790133;78;21372;-56
2021/04/03 11:37:10;;;;;;;0.42;0.20;;;;;;;9.87;32.36;98994.70;1809874;77;21194;-58
2021/04/03 11:39:38;;;;;;;1.07;0.10;;;;;;;9.87;32.88;98992.01;1780078;78;21175;-57
2021/04/03 11:42:06;;;;;;;0.50;0.20;;;;;;;9.92;31.27;98986.86;1783516;78;21176;-55
2021/04/03 11:44:34;;;;;;;0.40;0.10;;;;;;;9.86;30.65;98985.41;1781315;78;21191;-58
2021/04/03 11:47:02;;;;;;;0.10;0.10;;;;;;;9.78;31.10;98984.47;1790288;78;22055;-57
2021/04/03 11:49:29;;;;;;;0.45;0.20;;;;;;;9.81;32.04;98989.68;1814262;77;21478;-57
2021/04/03 11:51:56;;;;;;;0.30;0.20;;;;;;;9.81;31.60;98990.16;1814391;77;21201;-56
2021/04/03 11:54:24;;;;;;;0.23;0.10;;;;;;;9.75;32.19;98996.75;1784665;78;21175;-55
2021/04/03 11:56:51;;;;;;;0.95;0.20;;;;;;;9.69;32.87;98996.24;1813792;77;21170;-56